Data for 01/24/2005

Time Sea-Level Adjusted Pressure Absolute Pressure Temperature Relative Humidity Dew Point   
(mb) (inHg) (mb) (inHg) (C) (F) (%) (C) (F)
00:05 1021 30.15 850 25.1 3.5 38.3 59 -3.7 25.4
00:10 1021 30.15 850 25.1 3.8 38.9 59 -3.5 25.6
00:15 1021 30.15 850 25.1 4 39.1 57 -3.8 25.2
00:20 1021 30.15 850 25.1 4.5 40.2 54 -4 24.9
00:25 1021 30.15 850 25.1 4.7 40.4 55 -3.5 25.7
00:30 1021 30.15 850 25.1 4.5 40.2 55 -3.8 25.2
00:35 1021 30.15 850 25.1 4.7 40.5 54 -3.9 25.1
00:40 1021 30.15 850 25.1 4.7 40.4 54 -3.9 25
00:45 1021 30.15 850 25.1 4.7 40.4 54 -3.9 25
00:50 1021 30.15 850 25.1 4.4 39.9 56 -3.7 25.4
00:55 1021 30.15 850 25.1 4.4 39.9 54 -4 24.8
01:00 1021 30.15 850 25.1 4.5 40.2 54 -3.9 25
01:05 1021 30.15 850 25.1 4.3 39.7 55 -3.9 25
01:10 1021 30.15 850 25.1 4.4 39.9 54 -4.1 24.7
01:15 1021 30.15 850 25.1 4.4 40 55 -3.9 24.9
01:20 1021 30.15 850 25.1 4.3 39.7 55 -3.8 25.1
01:25 1021 30.15 850 25.1 3.7 38.6 59 -3.5 25.6
01:30 1021 30.15 850 25.1 3.4 38.1 59 -3.9 25
01:35 1021 30.15 850 25.1 3.4 38.1 59 -3.8 25.2
01:40 1021 30.15 850 25.1 3.5 38.2 56 -4.4 24
01:45 1021 30.15 850 25.1 4.2 39.6 54 -4.3 24.2
01:50 1021 30.15 850 25.1 4.6 40.3 50 -4.8 23.4
01:55 1021 30.15 850 25.1 5 41.1 50 -4.5 24
02:00 1021 30.15 850 25.1 4.7 40.5 51 -4.5 23.9
02:05 1021 30.15 850 25.1 4.4 40 53 -4.4 24.1
02:10 1021 30.15 850 25.1 4.4 39.8 53 -4.3 24.2
02:15 1021 30.15 850 25.1 3.8 38.9 55 -4.3 24.3
02:20 1021 30.15 850 25.1 3.5 38.3 56 -4.5 24
02:25 1021 30.15 850 25.1 2.9 37.1 61 -3.8 25.1
02:30 1021 30.15 850 25.1 2.3 36.1 59 -4.8 23.3
02:35 1021 30.15 850 25.1 2.9 37.2 57 -4.7 23.5
02:40 1021 30.15 850 25.1 2.9 37.1 59 -4.3 24.2
02:45 1021 30.15 850 25.1 3.6 38.4 52 -5.3 22.4
02:50 1021 30.15 850 25.1 4.2 39.6 51 -5.1 22.9
02:55 1021 30.15 850 25.1 4.3 39.8 50 -5.2 22.7
03:00 1021 30.15 850 25.1 4.2 39.6 51 -5 23.1
03:05 1021 30.15 850 25.1 3.8 38.8 54 -4.8 23.3
03:10 1021 30.15 850 25.1 3.5 38.2 54 -5.1 22.9
03:15 1021 30.15 850 25.1 3.3 38 54 -5.2 22.7
03:20 1021 30.15 850 25.1 3.6 38.4 52 -5.4 22.2
03:25 1021 30.15 850 25.1 3.8 38.8 51 -5.4 22.3
03:30 1021 30.15 850 25.1 4.2 39.5 48 -5.8 21.6
03:35 1021 30.15 850 25.1 4.4 40 48 -5.6 22
03:40 1021 30.15 850 25.1 4.3 39.8 49 -5.6 22
03:45 1021 30.15 850 25.1 4.5 40 48 -5.6 21.9
03:50 1021 30.15 850 25.1 4.5 40.1 48 -5.7 21.8
03:55 1021 30.15 850 25.1 4.1 39.3 50 -5.4 22.2
04:00 1021 30.15 850 25.1 3.5 38.4 52 -5.5 22.1
04:05 1021 30.15 850 25.1 3.4 38.1 52 -5.6 22
04:10 1021 30.15 850 25.1 3.6 38.5 50 -5.8 21.6
04:15 1021 30.15 850 25.1 3.7 38.7 50 -5.7 21.7
04:20 1021 30.15 850 25.1 3.9 38.9 50 -5.5 22.1
04:25 1021 30.15 850 25.1 3.6 38.5 51 -5.5 22.1
04:30 1021 30.15 850 25.1 3.5 38.3 51 -5.8 21.6
04:35 1021 30.15 850 25.1 3 37.5 52 -5.8 21.6
04:40 1021 30.15 850 25.1 3.2 37.7 52 -5.8 21.5
04:45 1021 30.15 850 25.1 3.4 38.2 50 -6.1 21
04:50 1021 30.15 850 25.1 3.3 37.9 51 -6 21.1
04:55 1021 30.15 850 25.1 3.3 38 49 -6.3 20.7
05:00 1021 30.15 850 25.1 3.5 38.3 51 -5.7 21.7
05:05 1021 30.15 850 25.1 3 37.3 53 -5.8 21.6
05:10 1021 30.15 850 25.1 2.6 36.8 53 -5.9 21.4
05:15 1021 30.15 850 25.1 2.5 36.5 54 -5.8 21.5
05:20 1021 30.15 850 25.1 2.3 36.1 54 -6.1 21.1
05:25 1021 30.15 850 25.1 2.5 36.5 53 -6.1 21.1
05:30 1021 30.15 850 25.1 2.6 36.7 52 -6.2 20.8
05:35 1021 30.15 850 25.1 2.8 37 52 -6.2 20.9
05:40 1021 30.15 850 25.1 2.7 36.8 53 -6 21.2
05:45 1021 30.15 850 25.1 2.6 36.7 52 -6.2 20.8
05:50 1021 30.15 850 25.1 2.6 36.6 52 -6.2 20.9
05:55 1021 30.15 850 25.1 2.4 36.3 53 -6.1 21
06:00 1021 30.15 850 25.1 1.8 35.3 56 -6 21.3
06:05 1021 30.15 850 25.1 1.7 35 56 -6.3 20.7
06:10 1021 30.15 850 25.1 2.5 36.5 52 -6.4 20.5
06:15 1021 30.15 850 25.1 3 37.4 49 -6.5 20.2
06:20 1021 30.15 850 25.1 3.5 38.2 48 -6.5 20.2
06:25 1021 30.15 850 25.1 3.5 38.2 49 -6.4 20.5
06:30 1021 30.15 850 25.1 3.4 38.1 48 -6.6 20.2
06:35 1021 30.15 850 25.1 3.3 38 49 -6.3 20.6
06:40 1021 30.15 850 25.1 2.7 36.8 53 -6.1 21
06:45 1021 30.15 850 25.1 2.6 36.7 51 -6.6 20.1
06:50 1021 30.15 850 25.1 2.6 36.7 52 -6.3 20.7
06:55 1021 30.15 850 25.1 2.1 35.8 54 -6.3 20.7
07:00 1021 30.15 850 25.1 2.1 35.8 52 -6.7 20
07:05 1021 30.15 850 25.1 2.7 36.8 49 -6.9 19.5
07:10 1021 30.15 850 25.1 3 37.3 49 -6.8 19.8
07:15 1021 30.15 850 25.1 2.9 37.2 49 -6.7 20
07:20 1021 30.15 850 25.1 2.6 36.7 51 -6.5 20.2
07:25 1021 30.15 850 25.1 2.4 36.2 52 -6.6 20.1
07:30 1021 30.15 850 25.1 2.1 35.9 53 -6.5 20.2
07:35 1021 30.15 850 25.1 1.8 35.2 54 -6.4 20.4
07:40 1021 30.15 850 25.1 1.7 35.1 54 -6.6 20.2
07:45 1021 30.15 850 25.1 1.6 35 54 -6.6 20.1
07:50 1021 30.15 850 25.1 2 35.5 52 -6.8 19.8
07:55 1021 30.15 850 25.1 2.4 36.3 50 -6.9 19.5
08:00 1021 30.15 850 25.1 2.2 36 53 -6.4 20.5
08:05 1021 30.15 850 25.1 1.9 35.4 53 -6.7 19.9
08:10 1021 30.15 850 25.1 2.3 36.2 50 -7.1 19.2
08:15 1021 30.15 850 25.1 2.4 36.3 50 -7 19.3
08:20 1021 30.15 850 25.1 2.2 35.9 51 -6.9 19.5
08:25 1021 30.15 850 25.1 2.9 37.2 48 -7.2 19.1
08:30 1021 30.15 850 25.1 2.9 37.2 49 -6.8 19.7
08:35 1021 30.15 850 25.1 2.6 36.6 50 -6.9 19.5
08:40 1021 30.15 850 25.1 2.6 36.7 50 -6.8 19.7
08:45 1021 30.15 850 25.1 2.6 36.8 50 -6.9 19.6
08:50 1021 30.15 850 25.1 2.6 36.6 50 -6.8 19.8
08:55 1021 30.15 850 25.1 2.7 36.9 49 -7.1 19.3
09:00 1021 30.15 850 25.1 3 37.4 48 -6.9 19.7
09:05 1021 30.15 850 25.1 3.1 37.7 48 -6.9 19.6
09:10 1021 30.15 850 25.1 3.3 37.9 48 -6.8 19.7
09:15 1021 30.15 850 25.1 3.3 37.9 48 -6.7 20
09:20 1021 30.15 850 25.1 3.5 38.2 48 -6.5 20.2
09:25 1021 30.15 850 25.1 3.7 38.7 47 -6.6 20.2
09:30 1021 30.15 850 25.1 4 39.2 47 -6.4 20.4
09:35 1021 30.15 850 25.1 4.2 39.6 46 -6.4 20.4
09:40 1021 30.15 850 25.1 4.4 39.9 47 -6 21.2
09:45 1021 30.15 850 25.1 4.6 40.3 46 -6.1 21
09:50 1021 30.15 850 25.1 4.9 40.8 45 -6.1 21.1
09:55 1021 30.15 850 25.1 5.2 41.4 43 -6.2 20.8
10:00 1021 30.15 850 25.1 5.8 42.5 42 -6 21.2
10:05 1021 30.15 850 25.1 5.6 42 43 -6 21.2
10:10 1021 30.15 850 25.1 5.8 42.4 41 -6.4 20.4
10:15 1021 30.15 850 25.1 6.2 43.1 40 -6.3 20.7
10:20 1021 30.15 850 25.1 6.7 44.1 38 -6.5 20.3
10:25 1021 30.15 850 25.1 7.6 45.6 35 -6.9 19.6
10:30 1021 30.15 850 25.1 8.1 46.5 35 -6.4 20.5
10:35 1021 30.15 850 25.1 8.1 46.6 35 -6.4 20.5
10:40 1021 30.15 850 25.1 8.3 46.9 35 -6.4 20.5
10:45 1021 30.15 850 25.1 8.6 47.5 34 -6.5 20.2
10:50 1021 30.15 850 25.1 9.3 48.7 33 -6.3 20.6
10:55 1021 30.15 850 25.1 9.5 49 32 -6.4 20.4
11:00 1021 30.15 850 25.1 9.4 49 33 -6.2 20.9
11:05 1021 30.15 850 25.1 9.2 48.5 38 -4.4 24
11:10 1021 30.15 850 25.1 9.3 48.7 39 -4.1 24.6
11:15 1021 30.15 850 25.1 9.8 49.6 37 -4 24.8
11:20 1021 30.15 850 25.1 9 48.2 41 -3.7 25.4
11:25 1021 30.15 850 25.1 8.2 46.8 40 -4.4 24
11:30 1021 30.15 850 25.1 8.7 47.7 39 -4.5 24
11:35 1021 30.15 850 25.1 8.2 46.8 41 -4.2 24.4
11:40 1021 30.15 850 25.1 7.9 46.3 40 -4.7 23.5
11:45 1020 30.12 850 25.1 8.4 47.1 39 -4.7 23.5
11:50 1020 30.12 850 25.1 9.3 48.8 38 -4.3 24.2
11:55 1020 30.12 849 25.07 9 48.3 38 -4.6 23.7
12:00 1020 30.12 849 25.07 9.1 48.3 36 -5.4 22.3
12:05 1020 30.12 849 25.07 10.1 50.2 33 -5.3 22.4
12:10 1020 30.12 849 25.07 9.9 49.7 35 -5 23
12:15 1020 30.12 849 25.07 9.6 49.2 36 -4.8 23.4
12:20 1020 30.12 849 25.07 9.3 48.7 35 -5.4 22.2
12:25 1020 30.12 849 25.07 9.2 48.5 38 -4.5 23.8
12:30 1020 30.12 849 25.07 9.5 49.1 36 -4.8 23.3
12:35 1020 30.12 849 25.07 9.6 49.3 35 -5.1 22.8
12:40 1020 30.12 849 25.07 9.5 49.1 34 -5.4 22.3
12:45 1020 30.12 849 25.07 9.6 49.2 36 -4.9 23.2
12:50 1020 30.12 849 25.07 10.4 50.6 32 -5.6 21.9
12:55 1019 30.09 849 25.07 10.5 50.9 32 -5.4 22.2
13:00 1019 30.09 849 25.07 11.1 51.9 31 -5.2 22.6
13:05 1019 30.09 848 25.04 11.5 52.8 29 -5.7 21.8
13:10 1019 30.09 848 25.04 11.8 53.3 30 -5.1 22.8
13:15 1019 30.09 848 25.04 11.9 53.4 30 -5 22.9
13:20 1019 30.09 848 25.04 11.1 51.9 32 -4.8 23.4
13:25 1019 30.09 848 25.04 11.1 51.9 32 -4.9 23.1
13:30 1019 30.09 848 25.04 11.9 53.5 28 -5.9 21.3
13:35 1019 30.09 848 25.04 12.5 54.5 29 -5.1 22.9
13:40 1019 30.09 848 25.04 12.8 55.1 29 -4.8 23.3
13:45 1019 30.09 848 25.04 13.1 55.5 28 -4.8 23.4
13:50 1019 30.09 848 25.04 12.6 54.6 30 -4.3 24.3
13:55 1019 30.09 848 25.04 11.4 52.4 30 -5.4 22.3
14:00 1019 30.09 848 25.04 11 51.8 32 -4.8 23.3
14:05 1019 30.09 848 25.04 10.9 51.6 32 -5.1 22.8
14:10 1019 30.09 848 25.04 11 51.8 30 -5.7 21.8
14:15 1019 30.09 848 25.04 11.2 52.1 32 -5 23
14:20 1019 30.09 848 25.04 11.6 52.9 30 -5.4 22.2
14:25 1019 30.09 848 25.04 12.4 54.4 28 -5.5 22.1
14:30 1019 30.09 848 25.04 12.7 54.9 29 -4.8 23.4
14:35 1019 30.09 848 25.04 12 53.6 30 -4.9 23.1
14:40 1019 30.09 848 25.04 12.2 53.9 28 -5.6 21.9
14:45 1018 30.06 848 25.04 11.8 53.3 29 -5.6 22
14:50 1018 30.06 848 25.04 11.6 52.9 29 -5.6 21.9
14:55 1018 30.06 848 25.04 12.3 54.1 27 -6.2 20.9
15:00 1018 30.06 848 25.04 12.2 53.9 28 -5.9 21.4
15:05 1018 30.06 848 25.04 11.9 53.5 27 -6.5 20.3
15:10 1018 30.06 848 25.04 11.7 53.1 27 -6.7 20
15:15 1018 30.06 848 25.04 11.7 53 27 -6.5 20.3
15:20 1018 30.06 848 25.04 12.1 53.7 26 -6.7 19.9
15:25 1018 30.06 848 25.04 13.1 55.5 25 -6.3 20.7
15:30 1018 30.06 848 25.04 13.5 56.4 26 -5.6 21.9
15:35 1018 30.06 848 25.04 13.5 56.3 26 -5.6 21.9
15:40 1018 30.06 847 25.01 13.5 56.3 25 -6 21.1
15:45 1018 30.06 847 25.01 13.6 56.5 25 -5.9 21.5
15:50 1018 30.06 847 25.01 13.7 56.6 25 -5.8 21.5
15:55 1018 30.06 847 25.01 13.7 56.7 26 -5.6 22
16:00 1018 30.06 847 25.01 13.2 55.7 26 -5.8 21.6
16:05 1018 30.06 847 25.01 13.4 56 26 -5.7 21.7
16:10 1018 30.06 847 25.01 13.2 55.8 26 -5.8 21.6
16:15 1018 30.06 847 25.01 13.2 55.8 26 -6 21.1
16:20 1018 30.06 847 25.01 13.5 56.3 25 -6.2 20.8
16:25 1018 30.06 847 25.01 13.8 56.8 25 -6.1 21.1
16:30 1018 30.06 847 25.01 13.5 56.4 25 -6 21.2
16:35 1018 30.06 847 25.01 13.2 55.7 26 -5.9 21.4
16:40 1018 30.06 847 25.01 13.2 55.8 25 -6.2 20.8
16:45 1018 30.06 847 25.01 12.9 55.3 28 -5.1 22.8
16:50 1018 30.06 847 25.01 11.9 53.3 29 -5.8 21.6
16:55 1018 30.06 847 25.01 11.8 53.2 28 -6.1 21
17:00 1018 30.06 847 25.01 11.5 52.7 29 -6 21.2
17:05 1018 30.06 847 25.01 11.3 52.4 31 -5.3 22.5
17:10 1018 30.06 847 25.01 10.7 51.2 34 -4.3 24.2
17:15 1018 30.06 847 25.01 9.6 49.4 38 -4.1 24.6
17:20 1018 30.06 847 25.01 8.9 48.1 38 -4.7 23.5
17:25 1018 30.06 847 25.01 8.8 47.8 37 -5.1 22.9
17:30 1018 30.06 847 25.01 8 46.4 38 -5.4 22.2
17:35 1018 30.06 847 25.01 7.6 45.7 40 -5.3 22.5
17:40 1018 30.06 847 25.01 7.6 45.7 40 -5.2 22.7
17:45 1018 30.06 847 25.01 7.4 45.3 39 -5.8 21.5
17:50 1018 30.06 847 25.01 7.2 45 39 -5.8 21.6
17:55 1018 30.06 847 25.01 7.3 45.1 39 -5.7 21.7
18:00 1018 30.06 847 25.01 6.8 44.3 41 -5.4 22.3
18:05 1018 30.06 847 25.01 6.7 44.1 43 -5 23.1
18:10 1018 30.06 847 25.01 7 44.6 42 -4.9 23.1
18:15 1018 30.06 847 25.01 6.8 44.3 41 -5.7 21.8
18:20 1018 30.06 847 25.01 6.5 43.7 42 -5.4 22.3
18:25 1018 30.06 847 25.01 6.8 44.2 40 -5.8 21.6
18:30 1018 30.06 847 25.01 6.8 44.3 40 -5.9 21.4
18:35 1018 30.06 847 25.01 7.1 44.7 35 -7.5 18.5
18:40 1018 30.06 847 25.01 6.8 44.2 37 -7 19.4
18:45 1018 30.06 847 25.01 6.3 43.4 39 -6.7 20
18:50 1018 30.06 847 25.01 5.8 42.4 41 -6.4 20.6
18:55 1018 30.06 847 25.01 5 41 43 -6.6 20.2
19:00 1018 30.06 847 25.01 5.2 41.3 41 -7.1 19.3
19:05 1018 30.06 847 25.01 5.5 42 39 -7.3 18.9
19:10 1018 30.06 847 25.01 6 42.8 35 -8.4 16.9
19:15 1018 30.06 847 25.01 6.5 43.7 34 -8.1 17.4
19:20 1018 30.06 848 25.04 6.5 43.8 35 -7.7 18.1
19:25 1018 30.06 848 25.04 6.1 43 36 -7.9 17.8
19:30 1018 30.06 848 25.04 5.9 42.6 37 -7.8 17.9
19:35 1018 30.06 848 25.04 6.2 43.1 36 -7.9 17.7
19:40 1018 30.06 848 25.04 6.3 43.3 35 -8 17.6
19:45 1018 30.06 848 25.04 6.2 43.2 37 -7.5 18.5
19:50 1019 30.09 848 25.04 6.1 43.1 37 -7.6 18.3
19:55 1019 30.09 848 25.04 6 42.8 38 -7.1 19.2
20:00 1019 30.09 848 25.04 5.1 41.3 41 -6.9 19.6
20:05 1019 30.09 848 25.04 5 40.9 39 -7.9 17.9
20:10 1018 30.06 848 25.04 5.2 41.3 39 -7.8 18
20:15 1018 30.06 848 25.04 5.4 41.7 38 -7.9 17.8
20:20 1019 30.09 848 25.04 5.2 41.4 40 -7.4 18.7
20:25 1018 30.06 848 25.04 5.1 41.2 38 -8.2 17.2
20:30 1018 30.06 848 25.04 5.4 41.6 38 -7.9 17.8
20:35 1018 30.06 848 25.04 5 41 40 -7.6 18.2
20:40 1018 30.06 848 25.04 4.7 40.5 39 -8.1 17.4
20:45 1018 30.06 848 25.04 4.8 40.6 39 -7.9 17.7
20:50 1018 30.06 848 25.04 4.6 40.2 41 -7.5 18.4
20:55 1019 30.09 848 25.04 4.1 39.5 44 -7 19.4
21:00 1019 30.09 848 25.04 3.6 38.5 46 -7 19.4
21:05 1019 30.09 848 25.04 3.7 38.6 45 -7.2 19
21:10 1019 30.09 848 25.04 3.7 38.6 45 -7.1 19.2
21:15 1019 30.09 848 25.04 3.5 38.3 46 -7.2 19.1
21:20 1019 30.09 848 25.04 3.7 38.6 43 -7.7 18.2
21:25 1019 30.09 848 25.04 3.9 39.1 43 -7.5 18.4
21:30 1019 30.09 848 25.04 3.9 39 45 -7 19.4
21:35 1019 30.09 848 25.04 3.6 38.5 46 -7 19.4
21:40 1019 30.09 848 25.04 3.4 38.1 47 -6.9 19.5
21:45 1019 30.09 848 25.04 3 37.4 48 -6.9 19.6
21:50 1019 30.09 848 25.04 2.7 36.9 50 -6.7 20
21:55 1019 30.09 848 25.04 1.9 35.4 53 -6.7 20
22:00 1019 30.09 848 25.04 2.4 36.3 48 -7.5 18.5
22:05 1019 30.09 848 25.04 3.1 37.5 46 -7.5 18.5
22:10 1019 30.09 848 25.04 3.2 37.8 46 -7.2 19
22:15 1019 30.09 848 25.04 2.9 37.2 48 -7.1 19.2
22:20 1019 30.09 848 25.04 2.7 36.9 48 -7.2 19
22:25 1019 30.09 848 25.04 2.6 36.6 49 -7.2 19.1
22:30 1019 30.09 848 25.04 2.6 36.7 47 -7.5 18.6
22:35 1019 30.09 848 25.04 2.6 36.7 48 -7.4 18.7
22:40 1019 30.09 848 25.04 2.4 36.3 49 -7.3 18.9
22:45 1019 30.09 848 25.04 2.3 36.1 50 -7.2 19.1
22:50 1019 30.09 848 25.04 2.5 36.5 47 -7.6 18.3
22:55 1019 30.09 848 25.04 3 37.5 44 -7.9 17.7
23:00 1019 30.09 848 25.04 3.4 38.2 42 -8.3 17
23:05 1019 30.09 848 25.04 3.7 38.6 43 -7.7 18.1
23:10 1019 30.09 848 25.04 3.3 37.9 44 -7.8 18
23:15 1019 30.09 848 25.04 3 37.3 48 -7 19.4
23:20 1019 30.09 848 25.04 2.5 36.5 49 -7.2 19
23:25 1019 30.09 848 25.04 2.6 36.7 47 -7.7 18.2
23:30 1019 30.09 848 25.04 3.3 38 42 -8.4 16.8
23:35 1019 30.09 848 25.04 3.9 39 40 -8.4 17
23:40 1019 30.09 848 25.04 4.3 39.7 38 -8.8 16.2
23:45 1019 30.09 848 25.04 4.3 39.7 40 -8.2 17.3
23:50 1019 30.09 848 25.04 4 39.1 41 -8.1 17.4
23:55 1019 30.09 848 25.04 3.4 38.2 42 -8.2 17.2
24:00 1019 30.09 848 25.04 3 37.4 47 -7.2 19